Time;durP1;ratioP1;P1;durP2;ratioP2;P2;SDS_P1;SDS_P2;PMS_P1;PMS_P2;Temp;Humidity;BMP_temperature;BMP_pressure;BME280_temperature;BME280_humidity;BME280_pressure;Samples;Min_cycle;Max_cycle;Signal;HPM_P1;HPM_P2
2022/01/04 00:00:30;;;;;;;6.87;2.60;;;;;;;3.71;76.64;97316.53;1753991;82;21485;-74
2022/01/04 00:02:58;;;;;;;4.45;2.67;;;;;;;3.66;77.34;97327.06;1754393;82;21024;-74
2022/01/04 00:05:25;;;;;;;6.37;2.30;;;;;;;3.61;77.21;97317.08;1754588;82;20999;-75
2022/01/04 00:07:53;;;;;;;3.27;2.10;;;;;;;3.51;77.83;97313.73;1723778;82;20984;-75
2022/01/04 00:10:22;;;;;;;4.28;2.50;;;;;;;3.45;77.46;97317.73;1767480;80;21055;-74
2022/01/04 00:15:35;;;;;;;4.65;2.52;;;;;;;3.37;77.69;97318.27;1754602;82;21011;-74
2022/01/04 00:18:04;;;;;;;7.12;3.22;;;;;;;3.32;78.04;97322.23;1754425;82;21047;-75
2022/01/04 00:20:30;;;;;;;4.45;2.80;;;;;;;3.29;78.36;97324.44;1754435;82;21028;-75
2022/01/04 00:22:57;;;;;;;6.72;3.55;;;;;;;3.24;78.41;97317.53;1754465;82;21027;-75
2022/01/04 00:25:24;;;;;;;4.50;2.55;;;;;;;3.22;78.50;97321.91;1758710;80;20981;-74
2022/01/04 00:27:51;;;;;;;8.03;3.10;;;;;;;3.19;78.62;97321.50;1781478;80;21416;-74
2022/01/04 00:30:18;;;;;;;6.75;2.58;;;;;;;3.17;79.50;97320.66;1784607;80;20968;-74
2022/01/04 00:32:47;;;;;;;4.60;2.98;;;;;;;3.11;79.27;97322.89;1784954;80;21000;-74
2022/01/04 00:35:13;;;;;;;6.65;2.77;;;;;;;3.09;80.09;97326.41;1777907;79;21008;-75
2022/01/04 00:37:42;;;;;;;4.72;2.75;;;;;;;3.08;79.24;97328.18;1757998;81;21023;-74
2022/01/04 00:40:13;;;;;;;6.67;2.92;;;;;;;3.07;79.56;97328.19;1760298;81;21027;-75
2022/01/04 00:42:40;;;;;;;6.10;3.42;;;;;;;3.06;80.38;97326.00;1788356;80;20976;-74
2022/01/04 00:45:07;;;;;;;5.40;2.90;;;;;;;3.04;79.60;97332.55;1791477;80;20977;-75
2022/01/04 00:50:17;;;;;;;5.60;3.20;;;;;;;3.09;80.02;97326.41;1728446;81;21410;-75
2022/01/04 00:52:43;;;;;;;6.78;2.62;;;;;;;3.15;80.66;97323.72;1759941;81;21457;-75
2022/01/04 00:55:09;;;;;;;3.72;2.27;;;;;;;3.22;80.53;97331.07;1760140;81;20988;-75
2022/01/04 00:57:36;;;;;;;3.60;2.40;;;;;;;3.27;81.26;97331.45;1760398;81;20987;-75
2022/01/04 01:00:06;;;;;;;6.47;2.37;;;;;;;3.35;81.17;97330.06;1760250;81;21019;-75
2022/01/04 01:02:33;;;;;;;3.72;2.25;;;;;;;3.45;80.92;97337.38;1760791;80;20985;-75
2022/01/04 01:04:59;;;;;;;3.95;2.37;;;;;;;3.54;80.83;97335.94;1760187;81;20987;-75
2022/01/04 01:07:27;;;;;;;3.45;1.80;;;;;;;3.62;80.76;97341.55;1759843;81;21081;-75
2022/01/04 01:10:29;;;;;;;3.58;1.82;;;;;;;3.68;80.36;97334.91;1760230;81;20960;-75
2022/01/04 01:12:41;;;;;;;3.55;2.45;;;;;;;3.74;80.45;97331.35;1755924;81;21043;-75
2022/01/04 01:15:10;;;;;;;4.00;2.17;;;;;;;3.79;80.07;97331.70;1760149;81;21493;-75
2022/01/04 01:17:37;;;;;;;5.28;2.12;;;;;;;3.81;79.71;97323.81;1786020;80;21008;-76
2022/01/04 01:20:08;;;;;;;6.37;2.22;;;;;;;3.85;79.52;97331.22;1791404;80;20980;-75
2022/01/04 01:22:38;;;;;;;5.00;2.30;;;;;;;3.90;79.75;97326.78;1791327;80;20980;-76
2022/01/04 01:25:06;;;;;;;5.50;2.37;;;;;;;3.91;79.76;97327.20;1791250;80;21022;-75
2022/01/04 01:27:33;;;;;;;5.85;2.92;;;;;;;3.91;79.74;97332.44;1791316;80;20960;-76
2022/01/04 01:29:59;;;;;;;4.97;2.58;;;;;;;3.85;79.51;97329.45;1791210;80;21089;-76
2022/01/04 01:32:29;;;;;;;4.83;2.72;;;;;;;3.76;79.11;97330.45;1791140;80;20999;-75
2022/01/04 01:34:57;;;;;;;5.33;2.60;;;;;;;3.70;79.19;97325.30;1768634;79;21022;-74
2022/01/04 01:37:23;;;;;;;7.22;2.98;;;;;;;3.65;79.15;97334.97;1759951;81;21081;-74
2022/01/04 01:39:50;;;;;;;5.30;2.62;;;;;;;3.60;79.15;97321.02;1770256;80;21476;-75
2022/01/04 01:42:17;;;;;;;6.75;3.27;;;;;;;3.56;79.28;97329.38;1789065;80;21469;-75
2022/01/04 01:44:43;;;;;;;7.92;3.50;;;;;;;3.52;79.32;97325.05;1780989;80;21004;-75
2022/01/04 01:49:53;;;;;;;5.53;3.00;;;;;;;3.48;79.57;97303.73;1806194;78;22648;-75
2022/01/04 01:52:21;;;;;;;4.80;3.33;;;;;;;3.41;79.48;97305.09;1762978;81;21023;-75
2022/01/04 01:54:47;;;;;;;7.72;3.62;;;;;;;3.37;79.53;97305.16;1747834;81;20953;-74
2022/01/04 01:57:14;;;;;;;6.10;3.50;;;;;;;3.30;79.50;97303.05;1714983;83;21445;-75
2022/01/04 01:59:40;;;;;;;6.20;3.80;;;;;;;3.25;79.97;97300.50;1728176;83;20979;-75
2022/01/04 02:02:07;;;;;;;8.85;3.52;;;;;;;3.22;80.10;97303.58;1729318;83;21016;-75
2022/01/04 02:04:33;;;;;;;6.67;4.17;;;;;;;3.18;79.91;97305.37;1729529;83;20985;-75
2022/01/04 02:07:00;;;;;;;7.70;4.20;;;;;;;3.15;79.87;97301.03;1729365;83;21027;-75
2022/01/04 02:09:30;;;;;;;9.45;5.33;;;;;;;3.11;80.13;97305.03;1728492;83;21012;-75
2022/01/04 02:12:01;;;;;;;9.28;5.22;;;;;;;3.06;79.96;97297.20;1729518;83;21103;-75
2022/01/04 02:14:30;;;;;;;10.00;4.62;;;;;;;3.02;80.08;97296.80;1729428;83;21023;-73
2022/01/04 02:16:57;;;;;;;9.95;4.33;;;;;;;2.99;81.54;97300.33;1729511;83;21040;-74
2022/01/04 02:19:25;;;;;;;10.35;5.33;;;;;;;2.94;81.06;97306.05;1711415;83;21078;-73
2022/01/04 02:21:52;;;;;;;11.80;5.25;;;;;;;2.95;80.73;97302.55;1700401;84;21048;-74
2022/01/04 02:24:22;;;;;;;11.57;4.85;;;;;;;2.94;80.71;97299.97;1706356;83;21453;-74
2022/01/04 02:26:47;;;;;;;10.15;5.22;;;;;;;2.93;80.86;97296.47;1699823;84;21064;-74
2022/01/04 02:29:13;;;;;;;8.23;4.80;;;;;;;2.92;81.07;97299.09;1700118;84;21019;-74
2022/01/04 02:31:42;;;;;;;8.58;4.45;;;;;;;2.93;81.21;97295.16;1715245;83;21481;-74
2022/01/04 02:34:08;;;;;;;9.20;4.30;;;;;;;2.93;82.31;97301.70;1728936;81;21043;-75
2022/01/04 02:36:41;;;;;;;8.93;4.50;;;;;;;2.93;81.77;97289.92;1691009;85;21037;-75
2022/01/04 02:39:07;;;;;;;9.90;4.78;;;;;;;2.95;81.91;97291.23;1716389;82;21032;-75
2022/01/04 02:41:34;;;;;;;7.58;4.10;;;;;;;2.96;82.00;97292.52;1726630;83;21041;-75
2022/01/04 02:44:00;;;;;;;7.85;4.60;;;;;;;3.00;82.12;97308.59;1726790;83;21071;-75
2022/01/04 02:46:28;;;;;;;6.65;3.65;;;;;;;3.05;81.79;97308.56;1726027;83;21025;-75
2022/01/04 02:48:55;;;;;;;7.53;4.15;;;;;;;3.09;82.11;97298.92;1724391;83;21092;-75
2022/01/04 02:51:23;;;;;;;7.15;4.00;;;;;;;3.13;82.23;97304.55;1724297;82;21108;-74
2022/01/04 02:53:50;;;;;;;5.62;3.65;;;;;;;3.19;82.46;97311.02;1725377;83;21593;-75
2022/01/04 02:56:16;;;;;;;5.25;3.45;;;;;;;3.27;82.41;97309.20;1738616;82;21017;-74
2022/01/04 02:58:42;;;;;;;5.75;3.47;;;;;;;3.35;82.62;97310.84;1738823;82;21027;-74
2022/01/04 03:01:09;;;;;;;4.90;2.58;;;;;;;3.40;82.70;97307.30;1739655;82;21458;-75
2022/01/04 03:03:35;;;;;;;5.03;3.08;;;;;;;3.47;82.64;97301.55;1726642;83;21043;-75
2022/01/04 03:06:02;;;;;;;3.55;2.67;;;;;;;3.52;83.01;97297.11;1717468;83;21055;-74
2022/01/04 03:08:28;;;;;;;6.33;3.20;;;;;;;3.59;83.35;97300.53;1726368;83;21073;-74
2022/01/04 03:10:55;;;;;;;6.90;3.83;;;;;;;3.62;83.08;97293.95;1726428;83;21107;-75
2022/01/04 03:13:22;;;;;;;9.55;3.95;;;;;;;3.65;82.45;97297.81;1726429;83;20993;-74
2022/01/04 03:15:48;;;;;;;8.63;3.92;;;;;;;3.68;82.48;97287.73;1742153;82;21426;-75
2022/01/04 03:18:15;;;;;;;6.50;3.70;;;;;;;3.68;82.42;97286.42;1756785;82;21048;-74
2022/01/04 03:20:42;;;;;;;7.50;4.47;;;;;;;3.69;82.22;97285.10;1757079;82;21074;-75
2022/01/04 03:23:10;;;;;;;8.55;4.53;;;;;;;3.69;81.68;97280.30;1756818;82;21423;-75
2022/01/04 03:25:40;;;;;;;8.45;4.70;;;;;;;3.64;81.72;97277.75;1756997;81;21048;-74
2022/01/04 03:28:09;;;;;;;7.55;4.20;;;;;;;3.63;81.70;97275.14;1757039;82;21052;-75
2022/01/04 03:30:35;;;;;;;5.47;3.87;;;;;;;3.59;81.73;97270.82;1740745;82;20997;-75
2022/01/04 03:33:02;;;;;;;7.10;4.05;;;;;;;3.55;82.25;97273.94;1726084;83;21654;-75
2022/01/04 03:35:31;;;;;;;8.28;4.37;;;;;;;3.49;82.32;97274.02;1726850;83;20998;-75
2022/01/04 03:37:58;;;;;;;6.62;3.98;;;;;;;3.45;81.74;97275.83;1726933;82;21068;-75
2022/01/04 03:40:26;;;;;;;5.60;3.85;;;;;;;3.42;81.90;97271.92;1699871;83;21029;-74
2022/01/04 03:42:52;;;;;;;7.25;4.70;;;;;;;3.41;81.91;97267.58;1726394;83;21033;-74
2022/01/04 03:45:19;;;;;;;8.68;4.78;;;;;;;3.42;82.72;97262.75;1709317;83;21028;-74
2022/01/04 03:47:46;;;;;;;8.40;5.45;;;;;;;3.40;82.09;97262.77;1719913;82;21048;-74
2022/01/04 03:50:13;;;;;;;7.17;5.22;;;;;;;3.41;81.91;97264.95;1726122;83;21016;-74
2022/01/04 03:52:40;;;;;;;9.98;5.05;;;;;;;3.40;81.83;97265.38;1726482;83;21040;-75
2022/01/04 03:55:09;;;;;;;9.70;5.35;;;;;;;3.40;82.25;97264.08;1726433;83;21017;-75
2022/01/04 03:57:37;;;;;;;8.35;5.08;;;;;;;3.42;82.43;97267.99;1726285;83;21022;-75
2022/01/04 04:00:08;;;;;;;8.88;5.17;;;;;;;3.42;82.77;97265.37;1726498;83;21064;-75
2022/01/04 04:02:40;;;;;;;7.87;4.87;;;;;;;3.42;82.80;97259.70;1750282;82;21044;-76
2022/01/04 04:05:09;;;;;;;8.25;5.17;;;;;;;3.43;82.50;97256.19;1756686;82;21044;-75
2022/01/04 04:07:38;;;;;;;9.85;5.60;;;;;;;3.45;82.48;97267.97;1756867;82;21029;-75
2022/01/04 04:10:06;;;;;;;9.08;4.95;;;;;;;3.45;82.61;97269.27;1756842;82;20997;-75
2022/01/04 04:12:36;;;;;;;7.78;5.03;;;;;;;3.46;82.62;97265.77;1751824;82;21073;-76
2022/01/04 04:15:08;;;;;;;7.12;4.62;;;;;;;3.48;82.67;97260.51;1713612;81;21726;-75
2022/01/04 04:17:35;;;;;;;6.90;4.87;;;;;;;3.51;82.42;97255.20;1726838;82;21458;-75
2022/01/04 04:20:05;;;;;;;9.20;4.95;;;;;;;3.50;82.75;97252.17;1697366;84;21012;-75
2022/01/04 04:22:32;;;;;;;11.63;6.15;;;;;;;3.50;82.76;97252.17;1726301;82;21009;-75
2022/01/04 04:24:59;;;;;;;7.37;5.20;;;;;;;3.51;82.85;97248.23;1707952;83;20996;-75
2022/01/04 04:27:25;;;;;;;7.35;5.25;;;;;;;3.51;82.74;97252.16;1697229;84;21056;-76
2022/01/04 04:29:53;;;;;;;8.23;5.95;;;;;;;3.50;83.52;97236.02;1697552;84;21044;-75
2022/01/04 04:32:20;;;;;;;7.60;5.35;;;;;;;3.50;83.13;97234.71;1697062;84;21064;-75
2022/01/04 04:34:46;;;;;;;8.33;5.10;;;;;;;3.49;83.45;97233.42;1707846;83;21010;-75
2022/01/04 04:37:15;;;;;;;7.03;5.10;;;;;;;3.50;83.23;97235.14;1749878;82;21092;-75
2022/01/04 04:39:42;;;;;;;9.25;5.70;;;;;;;3.52;83.79;97243.84;1755918;82;21518;-74
2022/01/04 04:42:10;;;;;;;8.33;5.30;;;;;;;3.52;84.19;97243.41;1736421;82;21549;-74
2022/01/04 04:44:37;;;;;;;7.58;5.35;;;;;;;3.53;83.72;97240.35;1726493;83;21025;-75
2022/01/04 04:47:04;;;;;;;9.73;5.78;;;;;;;3.50;85.61;97241.27;1726391;83;21112;-75
2022/01/04 04:49:30;;;;;;;10.38;6.35;;;;;;;3.47;84.69;97231.24;1726263;83;21486;-75
2022/01/04 04:51:59;;;;;;;10.15;5.92;;;;;;;3.45;84.61;97227.36;1726483;83;21045;-75
2022/01/04 04:54:27;;;;;;;9.33;6.03;;;;;;;3.43;84.32;97235.23;1726322;83;21052;-75
2022/01/04 04:56:54;;;;;;;9.45;5.53;;;;;;;3.42;84.50;97230.89;1734677;82;21025;-75
2022/01/04 04:59:20;;;;;;;8.73;5.58;;;;;;;3.46;84.85;97241.30;1726421;83;21035;-75
2022/01/04 05:01:47;;;;;;;11.00;5.70;;;;;;;3.48;84.67;97246.95;1726263;83;21450;-75
2022/01/04 05:04:14;;;;;;;6.83;5.00;;;;;;;3.50;84.67;97241.27;1726474;83;21020;-75
2022/01/04 05:06:40;;;;;;;8.45;5.20;;;;;;;3.52;85.15;97235.55;1726438;83;21060;-75
2022/01/04 05:09:07;;;;;;;8.28;4.40;;;;;;;3.57;85.23;97236.77;1726177;83;21044;-75
2022/01/04 05:11:33;;;;;;;10.00;4.87;;;;;;;3.65;85.76;97241.94;1728428;82;21025;-75
2022/01/04 05:14:00;;;;;;;7.58;5.17;;;;;;;3.72;86.25;97241.38;1726527;83;20997;-75
2022/01/04 05:16:26;;;;;;;7.40;5.37;;;;;;;3.77;86.07;97239.12;1726365;83;21434;-75
2022/01/04 05:18:54;;;;;;;10.50;6.22;;;;;;;3.79;85.87;97236.02;1726534;83;21008;-75
2022/01/04 05:21:21;;;;;;;9.93;5.97;;;;;;;3.82;86.15;97233.38;1726375;83;21056;-75
2022/01/04 05:23:47;;;;;;;7.80;5.65;;;;;;;3.80;86.80;97233.85;1726300;83;21057;-75
2022/01/04 05:26:14;;;;;;;10.25;6.03;;;;;;;3.81;86.88;97227.72;1744187;82;21041;-75
2022/01/04 05:28:43;;;;;;;10.38;6.78;;;;;;;3.88;86.85;97232.42;1756889;81;21525;-76
2022/01/04 05:31:09;;;;;;;9.25;6.35;;;;;;;3.92;87.00;97224.94;1739712;82;21131;-76
2022/01/04 05:33:35;;;;;;;9.60;6.37;;;;;;;3.96;87.11;97212.64;1723614;83;21060;-74
2022/01/04 05:36:01;;;;;;;11.30;7.08;;;;;;;3.99;87.22;97200.81;1726458;83;21464;-74
2022/01/04 05:38:28;;;;;;;11.18;7.55;;;;;;;3.94;86.95;97193.00;1726673;83;21030;-76
2022/01/04 05:40:54;;;;;;;11.45;7.25;;;;;;;3.87;86.93;97186.57;1739693;82;21417;-74
2022/01/04 05:43:21;;;;;;;13.75;7.33;;;;;;;3.82;86.89;97180.10;1756744;82;20977;-74
2022/01/04 05:45:48;;;;;;;7.30;5.40;;;;;;;3.76;86.95;97167.95;1756989;82;21052;-74
2022/01/04 05:48:15;;;;;;;9.03;5.85;;;;;;;3.70;86.75;97182.00;1755772;82;21513;-74
2022/01/04 05:50:42;;;;;;;9.33;6.47;;;;;;;3.63;87.19;97176.88;1756330;82;21398;-74
2022/01/04 05:53:09;;;;;;;10.00;6.42;;;;;;;3.58;87.22;97170.84;1756817;82;21039;-75
2022/01/04 05:55:36;;;;;;;8.85;5.17;;;;;;;3.52;87.06;97172.67;1756846;82;20977;-74
2022/01/04 05:58:02;;;;;;;6.40;5.22;;;;;;;3.46;86.99;97171.89;1740218;82;21012;-74
2022/01/04 06:00:29;;;;;;;6.75;4.20;;;;;;;3.37;86.92;97163.72;1756786;81;20993;-74
2022/01/04 06:02:58;;;;;;;8.28;5.78;;;;;;;3.27;87.16;97163.84;1756892;82;21525;-74
2022/01/04 06:05:24;;;;;;;7.53;5.30;;;;;;;3.20;87.07;97167.88;1756663;82;21565;-74
2022/01/04 06:07:50;;;;;;;9.30;4.90;;;;;;;3.12;86.99;97165.37;1756942;82;21076;-74
2022/01/04 06:10:17;;;;;;;7.65;5.28;;;;;;;3.02;86.79;97161.56;1757065;82;20981;-74
2022/01/04 06:15:14;;;;;;;7.37;4.22;;;;;;;2.88;86.71;97168.72;1726366;83;21486;-75
2022/01/04 06:17:45;;;;;;;5.80;3.77;;;;;;;2.81;87.54;97185.36;1726360;83;20977;-75
2022/01/04 06:20:21;;;;;;;5.58;3.62;;;;;;;2.77;87.19;97176.25;1726444;83;21431;-75
2022/01/04 06:22:54;;;;;;;6.75;4.55;;;;;;;2.76;87.48;97180.19;1726498;83;21001;-75
2022/01/04 06:25:23;;;;;;;6.50;3.95;;;;;;;2.75;87.42;97175.84;1725766;83;21045;-75
2022/01/04 06:27:53;;;;;;;5.75;4.05;;;;;;;2.74;87.77;97177.59;1735322;82;20996;-74
2022/01/04 06:30:26;;;;;;;6.83;4.17;;;;;;;2.74;88.28;97174.97;1747811;82;20990;-74
2022/01/04 06:32:52;;;;;;;8.45;4.03;;;;;;;2.77;87.63;97175.38;1713923;83;21028;-75
2022/01/04 06:35:18;;;;;;;7.65;4.65;;;;;;;2.80;87.93;97170.12;1724513;83;21480;-75
2022/01/04 06:37:46;;;;;;;9.73;6.10;;;;;;;2.85;88.07;97170.05;1726098;83;21537;-75
2022/01/04 06:40:13;;;;;;;7.67;4.85;;;;;;;2.92;89.06;97165.61;1727032;82;21485;-74
2022/01/04 06:42:40;;;;;;;8.18;5.10;;;;;;;3.00;88.67;97158.08;1737943;82;21036;-74
2022/01/04 06:45:07;;;;;;;9.20;7.05;;;;;;;3.09;90.12;97169.33;1738249;82;21402;-74
2022/01/04 06:47:34;;;;;;;25.50;6.60;;;;;;;3.20;89.54;97166.11;1738143;82;21076;-74
2022/01/04 06:50:01;;;;;;;11.38;6.95;;;;;;;3.32;89.89;97165.55;1743979;81;21049;-74
2022/01/04 06:52:28;;;;;;;11.35;6.33;;;;;;;3.41;89.51;97178.05;1726548;83;20982;-74
2022/01/04 06:54:54;;;;;;;9.93;7.10;;;;;;;3.55;89.51;97170.45;1730082;83;20982;-75
2022/01/04 06:57:21;;;;;;;12.23;7.62;;;;;;;3.68;89.44;97166.76;1730146;82;21021;-74
2022/01/04 06:59:48;;;;;;;8.93;6.80;;;;;;;3.74;89.22;97168.40;1785608;80;20964;-75
2022/01/04 07:02:14;;;;;;;12.37;7.47;;;;;;;3.82;89.27;97165.22;1785620;80;21087;-75
2022/01/04 07:04:41;;;;;;;11.80;7.95;;;;;;;3.90;89.43;97161.16;1785750;80;20964;-75
2022/01/04 07:07:07;;;;;;;12.15;7.60;;;;;;;3.94;89.38;97158.03;1784581;80;21012;-75
2022/01/04 07:09:33;;;;;;;12.40;8.10;;;;;;;4.04;90.30;97154.40;1762573;80;21067;-74
2022/01/04 07:12:00;;;;;;;12.93;8.28;;;;;;;4.13;89.96;97142.00;1747595;81;21501;-74
2022/01/04 07:14:26;;;;;;;13.88;8.85;;;;;;;4.19;89.41;97144.07;1748682;81;20993;-75
2022/01/04 07:16:53;;;;;;;12.65;8.88;;;;;;;4.27;89.63;97152.27;1748767;81;21025;-74
2022/01/04 07:19:19;;;;;;;12.25;8.53;;;;;;;4.34;89.64;97148.63;1712725;84;21035;-73
2022/01/04 07:21:47;;;;;;;22.60;14.23;;;;;;;4.36;89.34;97146.83;1745369;80;21048;-73
2022/01/04 07:24:14;;;;;;;24.20;13.35;;;;;;;4.36;89.17;97146.39;1736843;81;21538;-73
2022/01/04 07:26:40;;;;;;;28.67;14.63;;;;;;;4.39;89.26;97148.56;1741977;82;21021;-74
2022/01/04 07:29:07;;;;;;;25.35;12.47;;;;;;;4.42;89.27;97140.61;1720362;82;21084;-75
2022/01/04 07:31:33;;;;;;;19.95;11.78;;;;;;;4.43;89.02;97137.97;1718911;82;21450;-74
2022/01/04 07:34:00;;;;;;;18.30;10.70;;;;;;;4.42;88.75;97128.37;1729133;82;20989;-73
2022/01/04 07:36:29;;;;;;;18.67;10.88;;;;;;;4.40;89.04;97122.27;1742333;80;21016;-73
2022/01/04 07:38:55;;;;;;;17.73;10.32;;;;;;;4.38;88.90;97120.14;1744013;82;21019;-72
2022/01/04 07:41:22;;;;;;;21.95;11.88;;;;;;;4.35;88.75;97125.43;1744233;81;20950;-72
2022/01/04 07:43:49;;;;;;;15.60;11.00;;;;;;;4.30;89.42;97125.53;1748212;82;21411;-72
2022/01/04 07:46:17;;;;;;;17.62;9.88;;;;;;;4.25;88.94;97124.75;1746226;81;20993;-72
2022/01/04 07:48:43;;;;;;;16.57;10.30;;;;;;;4.22;88.92;97117.80;1739958;82;21009;-72
2022/01/04 07:51:11;;;;;;;15.88;10.15;;;;;;;4.20;89.18;97128.75;1743153;80;21025;-72
2022/01/04 07:53:37;;;;;;;21.48;11.00;;;;;;;4.21;89.02;97122.64;1754534;80;20989;-72
2022/01/04 07:56:04;;;;;;;15.32;9.75;;;;;;;4.20;89.12;97115.64;1746121;82;20980;-72
2022/01/04 07:58:33;;;;;;;18.75;10.38;;;;;;;4.22;89.23;97109.05;1743627;81;20993;-73
2022/01/04 08:01:00;;;;;;;14.93;9.70;;;;;;;4.23;88.89;97097.66;1724884;81;21110;-72
2022/01/04 08:03:27;;;;;;;17.45;11.08;;;;;;;4.26;88.89;97094.12;1707359;83;21029;-72
2022/01/04 08:05:54;;;;;;;19.52;10.72;;;;;;;4.29;89.44;97099.32;1740212;82;21409;-72
2022/01/04 08:08:20;;;;;;;17.30;10.38;;;;;;;4.30;88.89;97093.17;1743762;80;21099;-72
2022/01/04 08:10:48;;;;;;;22.37;11.10;;;;;;;4.32;88.96;97094.88;1748054;81;21068;-73
2022/01/04 08:13:14;;;;;;;18.42;11.18;;;;;;;4.34;88.87;97090.48;1742160;81;21514;-73
2022/01/04 08:15:41;;;;;;;20.65;12.15;;;;;;;4.39;88.89;97089.06;1741975;82;20954;-72
2022/01/04 08:18:08;;;;;;;26.87;12.93;;;;;;;4.44;88.92;97092.92;1743701;82;21056;-73
2022/01/04 08:20:35;;;;;;;23.02;12.98;;;;;;;4.48;88.83;97094.57;1743625;82;20980;-72
2022/01/04 08:23:02;;;;;;;20.97;12.23;;;;;;;4.54;88.64;97088.34;1744456;80;21009;-72
2022/01/04 08:25:29;;;;;;;24.90;12.82;;;;;;;4.60;88.63;97085.59;1747512;81;21483;-72
2022/01/04 08:27:55;;;;;;;20.45;12.50;;;;;;;4.64;88.73;97080.70;1743985;81;21033;-73
2022/01/04 08:30:22;;;;;;;21.30;13.45;;;;;;;4.69;88.61;97077.53;1747160;82;21617;-73
2022/01/04 08:32:50;;;;;;;24.87;12.78;;;;;;;4.73;88.65;97084.89;1748108;82;21001;-72
2022/01/04 08:35:16;;;;;;;23.20;13.13;;;;;;;4.78;88.54;97093.56;1749186;81;21013;-72
2022/01/04 08:37:43;;;;;;;22.55;13.48;;;;;;;4.85;88.53;97089.02;1761507;80;20996;-72
2022/01/04 08:40:10;;;;;;;21.93;13.38;;;;;;;4.91;88.49;97094.59;1785511;80;21386;-72
2022/01/04 08:42:37;;;;;;;21.55;13.08;;;;;;;4.97;88.38;97087.45;1785623;80;21008;-72
2022/01/04 08:45:08;;;;;;;26.20;16.35;;;;;;;5.01;88.32;97086.50;1785441;80;21067;-72
2022/01/04 08:47:35;;;;;;;27.95;15.38;;;;;;;5.10;88.21;97090.67;1744463;80;21387;-72
2022/01/04 08:50:04;;;;;;;28.52;14.95;;;;;;;5.18;88.06;97090.97;1740659;82;20986;-72
2022/01/04 08:52:31;;;;;;;23.73;14.38;;;;;;;5.25;87.87;97088.16;1740765;82;21053;-72
2022/01/04 08:54:57;;;;;;;27.90;14.30;;;;;;;5.33;87.79;97091.05;1740857;82;20981;-72
2022/01/04 08:57:24;;;;;;;18.27;8.93;;;;;;;5.40;87.64;97088.70;1740642;82;21041;-72
2022/01/04 08:59:54;;;;;;;17.07;8.75;;;;;;;5.50;87.20;97078.83;1781364;80;20980;-72
2022/01/04 09:02:18;;;;;;;20.90;8.23;;;;;;;5.58;87.09;97072.94;1782507;80;20992;-72
2022/01/04 09:04:47;;;;;;;15.88;6.67;;;;;;;5.66;86.50;97078.01;1766450;80;21304;-72
2022/01/04 09:07:16;;;;;;;20.27;9.45;;;;;;;5.76;86.24;97073.37;1740560;82;20970;-71
2022/01/04 09:09:42;;;;;;;22.20;7.20;;;;;;;5.85;86.01;97078.40;1740851;82;21045;-72
2022/01/04 09:12:09;;;;;;;13.93;7.60;;;;;;;5.97;86.20;97065.86;1779730;80;20984;-72
2022/01/04 09:14:54;;;;;;;12.20;5.92;;;;;;;6.06;86.02;97054.66;1747391;80;20993;-73
2022/01/04 09:19:56;;;;;;;11.70;6.00;;;;;;;6.23;84.86;97061.70;1749304;82;22101;-72
2022/01/04 09:22:22;;;;;;;10.18;5.83;;;;;;;6.32;85.20;97060.98;1715660;83;21012;-73
2022/01/04 09:24:49;;;;;;;15.63;7.12;;;;;;;6.40;83.83;97048.07;1727180;82;20958;-72
2022/01/04 09:27:16;;;;;;;10.48;5.42;;;;;;;6.47;82.27;97054.88;1685035;84;21445;-71
2022/01/04 09:29:42;;;;;;;8.43;4.85;;;;;;;6.57;83.18;97052.38;1719492;83;20990;-71
2022/01/04 09:32:13;;;;;;;9.00;4.85;;;;;;;6.65;81.77;97047.37;1725730;80;21492;-71
2022/01/04 09:34:37;;;;;;;9.45;4.72;;;;;;;6.77;82.41;97045.67;1785140;80;21001;-73
2022/01/04 09:37:03;;;;;;;11.28;5.53;;;;;;;6.86;82.15;97046.72;1785550;80;20968;-73
2022/01/04 09:39:30;;;;;;;9.73;5.53;;;;;;;6.95;81.45;97040.78;1778506;80;21025;-72
2022/01/04 09:41:59;;;;;;;10.55;5.17;;;;;;;7.05;79.95;97038.73;1740612;82;21057;-72
2022/01/04 09:44:27;;;;;;;8.98;5.60;;;;;;;7.16;80.89;97024.77;1740877;82;20982;-72
2022/01/04 09:47:02;;;;;;;10.58;5.80;;;;;;;7.26;79.58;97010.38;1743409;80;21005;-71
2022/01/04 09:49:25;;;;;;;12.15;5.65;;;;;;;7.37;80.75;97006.53;1763420;80;20976;-72
2022/01/04 09:51:52;;;;;;;9.40;5.15;;;;;;;7.46;78.57;96999.64;1790440;80;21370;-72
2022/01/04 09:54:23;;;;;;;10.05;5.75;;;;;;;7.60;79.50;96999.64;1791331;80;21031;-72
2022/01/04 09:56:52;;;;;;;9.60;4.97;;;;;;;7.72;75.64;97010.23;1780537;80;22294;-72
2022/01/04 09:59:19;;;;;;;8.30;3.52;;;;;;;7.88;77.98;97007.91;1757069;82;20979;-73
2022/01/04 10:01:53;;;;;;;9.28;5.60;;;;;;;8.06;76.96;96987.95;1758169;80;20992;-72
2022/01/04 10:04:17;;;;;;;11.08;5.92;;;;;;;8.22;77.18;96987.41;1752160;80;21478;-73
2022/01/04 10:07:07;;;;;;;9.00;5.08;;;;;;;8.34;76.73;96988.73;1748996;81;21017;-72
2022/01/04 10:09:45;;;;;;;6.92;4.70;;;;;;;8.48;76.98;96971.05;1748802;82;21108;-71
2022/01/04 10:12:15;;;;;;;7.95;4.95;;;;;;;8.64;76.37;96975.33;1749131;82;20965;-71
2022/01/04 10:14:48;;;;;;;8.98;4.65;;;;;;;8.81;73.98;96969.39;1749972;80;21074;-73
2022/01/04 10:17:23;;;;;;;8.03;4.58;;;;;;;8.98;74.00;96966.09;1727259;83;21040;-71
2022/01/04 10:19:54;;;;;;;6.45;4.25;;;;;;;9.17;75.47;96967.52;1727416;83;20989;-73
2022/01/04 10:22:27;;;;;;;7.50;4.53;;;;;;;9.33;73.96;96978.78;1737717;82;21028;-71
2022/01/04 10:25:08;;;;;;;8.90;4.15;;;;;;;9.47;74.84;96978.23;1749953;80;21497;-71
2022/01/04 10:27:48;;;;;;;9.23;4.00;;;;;;;9.54;74.62;96968.27;1752996;82;20980;-72
2022/01/04 10:30:35;;;;;;;6.87;4.28;;;;;;;9.61;74.58;96961.33;1757912;80;20964;-73
2022/01/04 10:33:14;;;;;;;9.80;4.80;;;;;;;9.69;73.37;96946.89;1767084;80;21365;-72
2022/01/04 10:35:53;;;;;;;8.23;4.17;;;;;;;9.67;69.63;96960.18;1747060;82;21477;-72
2022/01/04 10:38:27;;;;;;;8.40;4.60;;;;;;;9.69;72.02;96958.34;1725773;83;20973;-72
2022/01/04 10:41:04;;;;;;;8.83;4.53;;;;;;;9.71;71.00;96947.22;1751253;80;20997;-72
2022/01/04 10:43:41;;;;;;;9.18;4.60;;;;;;;9.74;71.49;96947.10;1767261;80;20955;-73
2022/01/04 10:46:08;;;;;;;6.35;4.70;;;;;;;9.77;72.03;96941.66;1758374;80;21100;-72
2022/01/04 10:48:42;;;;;;;11.05;4.80;;;;;;;9.77;67.76;96939.49;1757138;81;21020;-72
2022/01/04 10:51:12;;;;;;;10.95;5.40;;;;;;;9.84;71.35;96936.13;1762601;80;21060;-72
2022/01/04 10:54:00;;;;;;;5.90;4.42;;;;;;;9.88;70.11;96931.94;1714957;83;21007;-72
2022/01/04 10:56:34;;;;;;;10.03;4.50;;;;;;;9.95;71.50;96925.04;1713023;83;20985;-72
2022/01/04 10:59:11;;;;;;;5.87;3.65;;;;;;;9.97;71.34;96922.72;1748016;80;21029;-72
2022/01/04 11:01:44;;;;;;;5.47;3.58;;;;;;;10.04;70.83;96924.63;1739165;81;20938;-72
2022/01/04 11:04:15;;;;;;;7.53;4.50;;;;;;;10.08;70.89;96918.77;1719550;83;21519;-72
2022/01/04 11:06:42;;;;;;;8.80;4.60;;;;;;;10.12;70.46;96919.86;1692901;83;21040;-72
2022/01/04 11:09:10;;;;;;;6.78;3.90;;;;;;;10.20;66.92;96918.64;1751510;80;21471;-72
2022/01/04 11:11:38;;;;;;;5.37;3.85;;;;;;;10.24;65.95;96919.77;1712667;83;20977;-72
2022/01/04 11:14:07;;;;;;;8.50;4.75;;;;;;;10.28;64.21;96916.06;1749197;82;21018;-72
2022/01/04 11:16:34;;;;;;;16.10;8.83;;;;;;;10.34;66.53;96915.38;1713463;83;21080;-72
2022/01/04 11:19:03;;;;;;;7.90;4.45;;;;;;;10.40;67.27;96905.82;1771747;80;20988;-72
2022/01/04 11:21:41;;;;;;;8.10;3.92;;;;;;;10.47;64.48;96910.41;1751918;80;20949;-72
2022/01/04 11:24:16;;;;;;;5.05;3.35;;;;;;;10.49;65.96;96900.13;1725363;83;20965;-72
2022/01/04 11:26:47;;;;;;;8.05;4.08;;;;;;;10.54;66.09;96886.20;1720464;83;21048;-73
2022/01/04 11:29:17;;;;;;;5.85;3.27;;;;;;;10.59;66.74;96890.42;1717745;83;21005;-72
2022/01/04 11:32:09;;;;;;;7.22;3.25;;;;;;;10.61;65.23;96892.07;1724062;83;20989;-72
2022/01/04 11:35:16;;;;;;;7.50;3.77;;;;;;;10.60;65.44;96888.16;1703148;83;21067;-72
2022/01/04 11:37:55;;;;;;;8.83;4.10;;;;;;;10.58;66.08;96882.09;1723931;83;20959;-72
2022/01/04 11:40:34;;;;;;;5.47;3.62;;;;;;;10.52;66.33;96871.31;1745561;82;20993;-72
2022/01/04 11:43:04;;;;;;;7.97;3.95;;;;;;;10.49;66.51;96861.72;1741606;82;20998;-72
2022/01/04 11:45:45;;;;;;;9.80;4.50;;;;;;;10.47;66.52;96865.38;1745227;82;20985;-72
2022/01/04 11:48:40;;;;;;;7.15;4.20;;;;;;;10.46;66.38;96860.53;1745495;80;20960;-72
2022/01/04 11:51:09;;;;;;;18.10;5.77;;;;;;;10.49;66.47;96856.42;1743745;80;20977;-72
2022/01/04 11:53:36;;;;;;;10.00;4.30;;;;;;;10.46;62.36;96849.94;1755743;80;21470;-72
2022/01/04 11:56:08;;;;;;;7.65;4.10;;;;;;;10.42;63.19;96839.05;1754632;81;20977;-72